Latest Weather Observations for Narrandera Airport

IDN60801

Issued at 3:35 pm EST Thursday 24 April 2014 (issued every 30 minutes, with the page automatically refreshed every 10 minutes)

About weather observations | Map of weather stations | Latest weather observations for NSW | Other Formats
Station Details ID: 074148 Name: NARRANDERA AIRPORT Lat: -34.70 Lon: 146.51 Height: 145.0 m
Data from the previous 72 hours. | See also: Recent months for locations in New South Wales
Date/Time
EST
Temp
°C
App
Temp
°C
Dew
Point
Rel
Hum
%
Delta-T
°C
Wind Press
QNH
hPa
Press
MSL
hPa
Rain
since 9 am
mm
Dir
 
Spd
km/h
Gust
km/h
Spd
kts
Gust
kts
24/03:30pm 21.9 18.1 5.8 35 8.1 SW 15 22 8 12 1015.7 - 0.0
24/03:00pm 22.1 18.2 5.5 34 8.3 SW 15 20 8 11 1015.6 1015.3 0.0
24/02:30pm 22.2 18.1 6.0 35 8.2 SW 17 24 9 13 1015.6 - 0.0
24/02:00pm 22.0 17.5 6.3 36 8.0 SSW 19 26 10 14 1015.6 1015.3 0.0
24/01:30pm 21.7 17.4 6.8 38 7.7 SSW 19 26 10 14 1015.8 - 0.0
24/01:00pm 21.7 17.1 5.6 35 8.1 SSW 19 30 10 16 1015.9 1015.6 0.0
24/12:30pm 21.6 17.6 6.7 38 7.6 SSW 17 24 9 13 1016.1 - 0.0
24/12:00pm 21.3 17.0 5.2 35 8.0 SW 17 26 9 14 1016.4 1016.1 0.0
24/11:30am 21.0 16.4 5.4 36 7.8 SW 19 24 10 13 1016.7 - 0.0
24/11:00am 20.9 16.9 6.8 40 7.2 SSW 17 24 9 13 1016.8 1016.5 0.0
24/10:30am 19.7 14.9 5.7 40 7.0 SW 20 26 11 14 1016.9 - 0.0
24/10:00am 19.3 15.8 8.6 50 5.6 SW 17 26 9 14 1016.9 1016.6 0.0
24/09:30am 17.8 16.3 11.8 68 3.3 SW 11 15 6 8 1016.9 - 0.0
24/09:00am 16.5 15.7 11.2 71 2.9 SW 6 15 3 8 1016.8 1016.5 0.0
24/08:30am 14.9 15.3 11.1 78 2.0 CALM 0 0 0 0 1016.4 - 0.0
24/08:00am 12.9 13.2 10.8 87 1.1 CALM 0 0 0 0 1015.9 1015.6 0.0
24/07:30am 11.0 11.1 10.2 95 0.4 CALM 0 0 0 0 1015.4 - 0.0
24/07:00am 9.7 9.5 8.9 95 0.4 CALM 0 0 0 0 1014.9 1014.6 0.0
24/06:30am 9.9 9.8 9.4 97 0.3 CALM 0 4 0 2 1014.5 - 0.0
24/06:00am 9.6 9.3 8.8 95 0.4 CALM 0 0 0 0 1014.1 1013.8 0.0
24/05:30am 9.9 9.6 8.8 93 0.5 CALM 0 0 0 0 1013.7 - 0.0
24/05:00am 10.2 10.1 9.3 94 0.5 CALM 0 0 0 0 1013.6 1013.3 0.0
24/04:30am 10.9 11.0 10.0 94 0.5 CALM 0 0 0 0 1013.4 - 0.0
24/04:00am 11.3 11.5 10.4 94 0.5 CALM 0 0 0 0 1013.2 1012.8 0.0
24/03:30am 11.1 11.1 9.9 92 0.6 CALM 0 0 0 0 1013.4 - 0.0
24/03:00am 11.4 11.5 10.3 93 0.6 CALM 0 0 0 0 1013.6 1013.3 0.0
24/02:30am 11.5 11.6 10.2 92 0.7 CALM 0 0 0 0 1013.8 - 0.0
24/02:00am 11.7 11.9 10.6 93 0.6 CALM 0 0 0 0 1014.0 1013.7 0.0
24/01:30am 11.8 12.0 10.4 91 0.7 CALM 0 0 0 0 1014.4 - 0.0
24/01:00am 12.2 12.5 10.8 91 0.7 CALM 0 0 0 0 1014.5 1014.2 0.0
24/12:30am 11.8 11.9 10.2 90 0.8 CALM 0 0 0 0 1014.4 - 0.0
24/12:00am 12.0 12.2 10.6 91 0.7 S 0 0 0 0 1014.6 1014.3 0.0
 
Date/Time
EST
Temp
°C
App
Temp
°C
Dew
Point
Rel
Hum
%
Delta-T
°C
Wind Press
QNH
hPa
Press
MSL
hPa
Rain
since 9 am
mm
Dir
 
Spd
km/h
Gust
km/h
Spd
kts
Gust
kts
23/11:30pm 12.5 12.8 10.9 90 0.8 CALM 0 0 0 0 1014.7 - 0.0
23/11:00pm 12.8 13.2 11.2 90 0.8 CALM 0 0 0 0 1014.8 1014.5 0.0
23/10:30pm 13.0 13.4 11.2 89 1.0 CALM 0 0 0 0 1015.0 - 0.0
23/10:00pm 13.2 13.5 10.9 86 1.2 CALM 0 0 0 0 1015.1 1014.8 0.0
23/09:30pm 13.8 14.1 10.8 82 1.6 CALM 0 0 0 0 1015.1 - 0.0
23/09:00pm 14.3 14.7 11.1 81 1.7 CALM 0 0 0 0 1015.1 1014.8 0.0
23/08:30pm 15.0 15.5 11.6 80 1.8 CALM 0 0 0 0 1015.1 - 0.0
23/08:00pm 16.5 17.1 11.9 74 2.5 CALM 0 0 0 0 1014.9 1014.6 0.0
23/07:30pm 17.0 17.7 12.3 74 2.6 CALM 0 0 0 0 1014.9 - 0.0
23/07:00pm 17.7 18.3 11.9 69 3.2 CALM 0 0 0 0 1014.7 1014.4 0.0
23/06:30pm 18.3 17.6 12.1 67 3.5 S 7 9 4 5 1014.6 - 0.0
23/06:00pm 19.8 19.1 12.1 61 4.3 SSW 7 7 4 4 1014.5 1014.2 0.0
23/05:30pm 20.3 19.2 11.8 58 4.8 SSW 9 13 5 7 1014.3 - 0.0
23/05:00pm 22.7 22.0 11.4 49 6.3 WSW 6 7 3 4 1014.1 1013.8 0.0
23/04:30pm 23.7 21.6 11.1 45 7.1 W 13 17 7 9 1014.1 - 0.0
23/04:00pm 23.7 21.5 10.7 44 7.3 W 13 17 7 9 1014.1 1013.8 0.0
23/03:30pm 24.3 22.1 10.9 43 7.5 SW 13 19 7 10 1014.1 - 0.0
23/03:00pm 24.9 22.9 11.5 43 7.6 SW 13 17 7 9 1014.2 1013.9 0.0
23/02:30pm 23.8 21.6 9.4 40 7.9 W 11 19 6 10 1014.2 - 0.0
23/02:00pm 25.4 23.3 9.7 37 8.7 WSW 11 20 6 11 1014.3 1014.0 0.0
23/01:30pm 24.4 21.9 11.0 43 7.5 WSW 15 22 8 12 1014.8 - 0.0
23/01:00pm 24.0 22.2 10.7 43 7.4 SW 11 15 6 8 1015.1 1014.8 0.0
23/12:30pm 23.6 21.4 9.2 40 7.8 WNW 11 20 6 11 1015.4 - 0.0
23/12:00pm 23.4 20.4 9.4 41 7.6 W 15 24 8 13 1015.9 1015.6 0.0
23/11:30am 22.4 18.0 7.4 38 7.8 NNW 20 26 11 14 1016.4 - 0.0
23/11:00am 21.9 17.8 7.7 40 7.4 NNW 19 26 10 14 1016.6 1016.3 0.0
23/10:30am 22.2 19.2 7.6 39 7.6 N 13 19 7 10 1016.9 - 0.0
23/10:00am 20.9 17.9 7.9 43 6.8 NNE 13 19 7 10 1016.9 1016.6 0.0
23/09:30am 19.5 16.3 10.0 54 5.1 NE 17 20 9 11 1017.2 - 0.0
23/09:00am 16.7 13.3 9.1 61 4.0 ENE 17 22 9 12 1017.4 1017.1 0.0
23/08:30am 15.9 12.7 8.6 62 3.7 NE 15 20 8 11 1017.3 - 0.0
23/08:00am 16.0 12.2 9.2 64 3.5 NE 19 22 10 12 1017.1 1016.8 0.0
23/07:30am 13.5 11.1 8.8 73 2.4 SE 11 11 6 6 1017.3 - 0.0
23/07:00am 12.5 10.9 8.0 74 2.2 E 6 11 3 6 1016.7 1016.4 0.0
23/06:30am 12.4 11.9 7.7 73 2.3 CALM 0 0 0 0 1016.5 - 0.0
23/06:00am 12.5 10.7 7.8 73 2.3 E 7 9 4 5 1016.3 1016.0 0.0
23/05:30am 13.4 12.8 7.2 66 3.0 CALM 0 0 0 0 1016.4 - 0.0
23/05:00am 13.9 12.8 7.0 63 3.4 NNW 2 7 1 4 1016.2 1015.9 0.0
23/04:30am 14.0 11.6 7.1 63 3.4 N 9 11 5 6 1015.9 - 0.0
23/04:00am 14.7 11.7 7.5 62 3.6 WNW 13 15 7 8 1015.9 1015.6 0.0
23/03:30am 15.0 13.0 7.1 59 3.9 NNW 7 11 4 6 1015.7 - 0.0
23/03:00am 15.2 14.0 8.0 62 3.6 N 4 9 2 5 1015.8 1015.5 0.0
23/02:30am 13.7 13.0 7.0 64 3.3 CALM 0 0 0 0 1015.9 - 0.0
23/02:00am 14.5 12.1 7.1 61 3.6 NNW 9 9 5 5 1016.0 1015.7 0.0
23/01:30am 15.3 12.6 7.3 59 4.0 NW 11 11 6 6 1016.1 - 0.0
23/01:00am 15.4 13.1 7.4 59 4.0 NNW 9 11 5 6 1016.2 1015.9 0.0
23/12:30am 15.4 12.4 7.7 60 3.9 NW 13 15 7 8 1016.2 - 0.0
23/12:00am 15.0 13.7 7.5 61 3.7 W 4 9 2 5 1016.4 1016.1 0.0
 
Date/Time
EST
Temp
°C
App
Temp
°C
Dew
Point
Rel
Hum
%
Delta-T
°C
Wind Press
QNH
hPa
Press
MSL
hPa
Rain
since 9 am
mm
Dir
 
Spd
km/h
Gust
km/h
Spd
kts
Gust
kts
22/11:30pm 15.4 14.9 7.7 60 3.9 CALM 0 0 0 0 1016.5 - 0.0
22/11:00pm 14.4 12.3 8.1 66 3.2 SSE 9 13 5 7 1016.7 1016.4 0.0
22/10:30pm 15.5 13.8 8.3 62 3.7 ENE 7 11 4 6 1016.8 - 0.0
22/10:00pm 14.7 13.1 8.2 65 3.3 E 6 9 3 5 1017.1 1016.8 0.0
22/09:30pm 15.1 14.2 7.9 62 3.6 SE 2 7 1 4 1017.1 - 0.0
22/09:00pm 16.7 14.1 7.9 56 4.5 ENE 11 13 6 7 1016.9 1016.6 0.0
22/08:30pm 17.1 14.9 7.7 54 4.8 NE 9 13 5 7 1016.6 - 0.0
22/08:00pm 17.2 13.9 8.1 55 4.7 NE 15 17 8 9 1016.3 1016.0 0.0
22/07:30pm 17.1 14.2 8.3 56 4.5 NNE 13 15 7 8 1016.1 - 0.0
22/07:00pm 17.3 14.8 8.4 56 4.6 NE 11 13 6 7 1016.0 1015.7 0.0
22/06:30pm 18.0 14.8 8.6 54 4.9 NE 15 17 8 9 1015.8 - 0.0
22/06:00pm 19.0 15.8 8.4 50 5.5 NNE 15 17 8 9 1015.6 1015.3 0.0
22/05:30pm 21.6 19.1 8.1 42 7.1 N 11 13 6 7 1015.6 - 0.0
22/05:00pm 23.5 20.6 8.0 37 8.2 N 13 19 7 10 1015.6 1015.3 0.0
22/04:30pm 24.3 20.7 8.3 36 8.6 N 17 22 9 12 1015.5 - 0.0
22/04:00pm 24.8 22.4 7.0 32 9.4 N 9 15 5 8 1015.6 1015.3 0.0
22/03:30pm 24.7 21.2 7.4 33 9.2 N 15 19 8 10 1015.7 - 0.0
22/03:00pm 25.2 21.9 8.2 34 9.1 NW 15 22 8 12 1015.7 1015.4 0.0
22/02:30pm 24.7 20.9 7.4 33 9.2 N 17 20 9 11 1015.5 - 0.0
22/02:00pm 24.9 22.1 8.4 35 8.9 N 13 26 7 14 1015.7 1015.4 0.0
22/01:30pm 24.3 21.1 8.3 36 8.6 N 15 24 8 13 1016.3 - 0.0
22/01:00pm 24.0 19.8 8.4 37 8.4 NW 20 28 11 15 1016.8 1016.5 0.0
22/12:30pm 23.7 19.6 8.5 38 8.2 NNW 20 28 11 15 1017.3 - 0.0
22/12:00pm 22.6 18.4 8.3 40 7.6 NNW 20 26 11 14 1017.6 1017.3 0.0
22/11:30am 22.3 18.9 9.1 43 7.1 NNW 17 22 9 12 1017.9 - 0.0
22/11:00am 21.5 17.2 7.0 39 7.5 NNW 19 22 10 12 1018.2 1017.9 0.0
22/10:30am 21.5 16.7 7.3 40 7.4 NNW 22 28 12 15 1018.7 - 0.0
22/10:00am 20.1 18.0 8.4 47 6.1 NNE 9 15 5 8 1018.7 1018.4 0.0
22/09:30am 18.2 15.9 9.0 55 4.8 NE 11 15 6 8 1018.9 - 0.0
22/09:00am 16.0 14.4 8.0 59 4.0 E 6 11 3 6 1019.0 1018.7 0.0
22/08:30am 13.6 10.9 7.2 65 3.1 E 11 15 6 8 1018.9 - 0.0
22/08:00am 12.1 9.4 7.2 72 2.4 ESE 11 11 6 6 1019.1 1018.8 0.0
22/07:30am 10.0 7.4 6.3 78 1.7 E 9 11 5 6 1019.0 - 0.0
22/07:00am 9.2 6.5 5.8 79 1.6 E 9 11 5 6 1018.6 1018.3 0.0
22/06:30am 8.8 6.1 5.5 80 1.5 E 9 11 5 6 1018.5 - 0.0
22/06:00am 8.8 6.5 5.7 81 1.4 E 7 9 4 5 1018.3 1018.0 0.0
22/05:30am 8.7 6.0 5.6 81 1.4 ESE 9 11 5 6 1018.2 - 0.0
22/05:00am 9.0 6.7 5.6 79 1.6 E 7 9 4 5 1018.2 1017.9 0.0
22/04:30am 9.3 7.0 5.5 77 1.7 E 7 9 4 5 1018.1 - 0.0
22/04:00am 10.3 8.2 5.7 73 2.1 ENE 6 9 3 5 1018.2 1017.9 0.0
22/03:30am 10.1 7.9 5.5 73 2.1 E 6 9 3 5 1018.1 - 0.0
22/03:00am 9.9 7.8 5.9 76 1.9 ESE 6 9 3 5 1018.1 1017.8 0.0
22/02:30am 9.5 7.3 5.1 74 2.0 NE 6 11 3 6 1018.3 - 0.0
22/02:00am 9.9 8.1 5.3 73 2.1 E 4 9 2 5 1018.5 1018.2 0.0
22/01:30am 10.3 7.5 5.3 71 2.3 NE 9 11 5 6 1018.6 - 0.0
22/01:00am 11.1 8.4 5.4 68 2.6 ENE 9 11 5 6 1018.6 1018.3 0.0
22/12:30am 11.6 8.1 5.5 66 2.8 ENE 13 15 7 8 1019.0 - 0.0
22/12:00am 12.5 9.1 5.7 63 3.2 ENE 13 15 7 8 1019.1 1018.8 0.0
 
Date/Time
EST
Temp
°C
App
Temp
°C
Dew
Point
Rel
Hum
%
Delta-T
°C
Wind Press
QNH
hPa
Press
MSL
hPa
Rain
since 9 am
mm
Dir
 
Spd
km/h
Gust
km/h
Spd
kts
Gust
kts
21/11:30pm 12.6 9.6 5.8 63 3.2 ENE 11 15 6 8 1019.6 - 0.0
21/11:00pm 12.8 9.5 6.2 64 3.1 ENE 13 19 7 10 1019.6 1019.3 0.0
21/10:30pm 11.9 10.3 6.2 68 2.7 E 4 11 2 6 1019.8 - 0.0
21/10:00pm 11.9 10.9 5.8 66 2.9 CALM 0 0 0 0 1020.0 1019.7 0.0
21/09:30pm 11.9 11.0 6.0 67 2.8 CALM 0 0 0 0 1020.1 - 0.0
21/09:00pm 12.7 11.9 6.7 67 2.9 CALM 0 0 0 0 1020.2 1019.9 0.0
21/08:30pm 10.9 10.3 7.2 78 1.8 CALM 0 0 0 0 1020.1 - 0.0
21/08:00pm 11.3 10.7 7.4 77 1.9 CALM 0 0 0 0 1020.1 1019.8 0.0
21/07:30pm 11.7 11.1 7.4 75 2.1 CALM 0 0 0 0 1020.2 - 0.0
21/07:00pm 11.8 11.2 7.5 75 2.1 CALM 0 0 0 0 1020.0 1019.7 0.0
21/06:30pm 13.0 12.4 7.5 69 2.7 CALM 0 0 0 0 1019.8 - 0.0
21/06:00pm 15.0 14.6 8.3 64 3.4 CALM 0 0 0 0 1019.4 1019.1 0.0
21/05:30pm 16.9 16.4 7.8 55 4.6 CALM 0 0 0 0 1019.3 - 0.0
21/05:00pm 18.8 17.4 5.3 41 6.6 W 2 7 1 4 1019.4 1019.1 0.0
21/04:30pm 19.9 18.6 5.9 40 7.0 NW 2 9 1 5 1019.4 - 0.0
21/04:00pm 19.8 17.2 4.3 36 7.5 N 7 11 4 6 1019.4 1019.1 0.0

Other Formats:

Comma delimited format used in spreadsheet applications
http://www.bom.gov.au/fwo/IDN60801/IDN60801.95706.axf

JavaScript Object Notation format (JSON) in row-major order
http://www.bom.gov.au/fwo/IDN60801/IDN60801.95706.json